createdAt,value
2019-03-30T00:00:11.148Z,100434.47
2019-03-30T00:00:42.334Z,100432.34
2019-03-30T00:01:13.543Z,100435.38
2019-03-30T00:01:44.810Z,100431.92
2019-03-30T00:02:16.027Z,100437.55
2019-03-30T00:02:47.284Z,100435.39
2019-03-30T00:03:18.503Z,100437.13
2019-03-30T00:03:49.770Z,100441.04
2019-03-30T00:04:20.971Z,100437.56
2019-03-30T00:04:52.243Z,100439.72
2019-03-30T00:05:23.470Z,100437.11
2019-03-30T00:05:54.666Z,100444.00
2019-03-30T00:06:25.878Z,100437.14
2019-03-30T00:06:57.089Z,100441.45
2019-03-30T00:07:28.303Z,100436.70
2019-03-30T00:07:59.510Z,100435.00
2019-03-30T00:08:30.744Z,100435.00
2019-03-30T00:09:02.004Z,100433.70
2019-03-30T00:09:33.200Z,100433.70
2019-03-30T00:10:04.427Z,100427.21
2019-03-30T00:10:35.635Z,100427.21
2019-03-30T00:11:06.847Z,100425.50
2019-03-30T00:11:38.059Z,100428.94
2019-03-30T00:12:09.256Z,100425.95
2019-03-30T00:12:40.465Z,100425.91
2019-03-30T00:13:11.756Z,100434.55
2019-03-30T00:13:42.950Z,100432.83
2019-03-30T00:14:14.156Z,100426.77
2019-03-30T00:14:45.355Z,100427.16
2019-03-30T00:15:16.579Z,100425.88
2019-03-30T00:15:47.809Z,100422.39
2019-03-30T00:16:19.001Z,100428.41
2019-03-30T00:16:50.246Z,100427.16
2019-03-30T00:17:21.467Z,100422.45
2019-03-30T00:17:52.687Z,100424.19
2019-03-30T00:18:23.911Z,100417.30
2019-03-30T00:18:55.165Z,100423.77
2019-03-30T00:19:34.924Z,100425.94
2019-03-30T00:19:59.289Z,100432.81
2019-03-30T00:20:30.523Z,100428.42
2019-03-30T00:21:01.721Z,100430.52
2019-03-30T00:21:32.940Z,100436.56
2019-03-30T00:22:04.139Z,100431.77
2019-03-30T00:22:35.349Z,100433.03
2019-03-30T00:23:06.583Z,100438.14
2019-03-30T00:23:37.843Z,100435.78
2019-03-30T00:24:09.114Z,100438.63
2019-03-30T00:24:40.335Z,100439.78
2019-03-30T00:25:11.545Z,100436.19
2019-03-30T00:25:42.759Z,100436.93
2019-03-30T00:26:13.978Z,100433.83
2019-03-30T00:26:45.195Z,100434.20
2019-03-30T00:27:16.427Z,100441.50
2019-03-30T00:27:47.650Z,100440.59
2019-03-30T00:28:18.854Z,100431.95
2019-03-30T00:28:50.122Z,100438.80
2019-03-30T00:29:21.331Z,100436.61
2019-03-30T00:29:52.540Z,100436.47
2019-03-30T00:30:23.781Z,100439.91
2019-03-30T00:30:55.004Z,100431.68
2019-03-30T00:31:26.275Z,100436.34
2019-03-30T00:31:57.486Z,100438.98
2019-03-30T00:32:28.696Z,100438.53
2019-03-30T00:32:59.935Z,100440.28
2019-03-30T00:33:31.151Z,100438.14
2019-03-30T00:34:02.363Z,100438.13
2019-03-30T00:34:33.580Z,100446.32
2019-03-30T00:35:04.782Z,100437.75
2019-03-30T00:35:35.991Z,100440.91
2019-03-30T00:36:07.232Z,100444.36
2019-03-30T00:36:38.506Z,100440.93
2019-03-30T00:37:09.711Z,100444.80
2019-03-30T00:37:40.921Z,100449.52
2019-03-30T00:38:12.181Z,100455.58
2019-03-30T00:38:43.425Z,100453.02
2019-03-30T00:39:14.612Z,100454.86
2019-03-30T00:39:45.872Z,100455.72
2019-03-30T00:40:17.050Z,100450.11
2019-03-30T00:40:48.262Z,100458.75
2019-03-30T00:41:19.481Z,100453.13
2019-03-30T00:41:50.743Z,100457.91
2019-03-30T00:42:21.958Z,100451.05
2019-03-30T00:42:53.184Z,100452.80
2019-03-30T00:43:24.431Z,100453.27
2019-03-30T00:43:55.644Z,100449.89
2019-03-30T00:44:26.882Z,100444.73
2019-03-30T00:44:58.076Z,100450.36
2019-03-30T00:45:29.296Z,100449.11
2019-03-30T00:46:00.509Z,100443.14
2019-03-30T00:46:32.311Z,100445.30
2019-03-30T00:47:03.525Z,100448.66
2019-03-30T00:47:34.769Z,100443.83
2019-03-30T00:48:05.997Z,100442.55
2019-03-30T00:48:37.259Z,100446.41
2019-03-30T00:49:08.473Z,100447.26
2019-03-30T00:49:48.978Z,100450.73
2019-03-30T00:50:12.658Z,100449.89
2019-03-30T00:50:43.893Z,100449.06
2019-03-30T00:51:15.099Z,100456.81
2019-03-30T00:51:46.320Z,100454.66
2019-03-30T00:52:17.532Z,100460.30
2019-03-30T00:52:48.744Z,100454.33
2019-03-30T00:53:19.979Z,100453.95
2019-03-30T00:53:51.195Z,100458.31
2019-03-30T00:54:22.394Z,100454.89
2019-03-30T00:54:53.615Z,100452.75
2019-03-30T00:55:26.117Z,100450.16
2019-03-30T00:55:57.347Z,100446.29
2019-03-30T00:56:28.556Z,100448.02
2019-03-30T00:56:59.790Z,100441.08
2019-03-30T00:57:31.984Z,100439.78
2019-03-30T00:58:03.192Z,100434.17
2019-03-30T00:58:34.474Z,100431.58
2019-03-30T00:59:05.694Z,100428.55
2019-03-30T00:59:36.899Z,100429.39
2019-03-30T01:00:08.142Z,100427.66
2019-03-30T01:00:39.351Z,100429.83
2019-03-30T01:01:10.565Z,100427.25
2019-03-30T01:01:41.771Z,100429.83
2019-03-30T01:02:13.061Z,100435.41
2019-03-30T01:02:44.276Z,100434.55
2019-03-30T01:03:15.509Z,100435.05
2019-03-30T01:03:47.217Z,100437.23
2019-03-30T01:04:18.555Z,100435.95
2019-03-30T01:04:49.790Z,100437.73
2019-03-30T01:05:20.995Z,100437.29
2019-03-30T01:05:52.215Z,100438.98
2019-03-30T01:06:23.413Z,100437.29
2019-03-30T01:06:54.709Z,100429.48
2019-03-30T01:07:25.943Z,100435.50
2019-03-30T01:07:57.126Z,100438.58
2019-03-30T01:08:28.348Z,100437.30
2019-03-30T01:08:59.607Z,100433.06
2019-03-30T01:09:30.812Z,100445.14
2019-03-30T01:10:02.051Z,100439.12
2019-03-30T01:10:33.262Z,100438.23
2019-03-30T01:11:04.524Z,100439.97
2019-03-30T01:11:35.763Z,100437.39
2019-03-30T01:12:07.026Z,100439.09
2019-03-30T01:12:38.241Z,100443.41
2019-03-30T01:13:09.449Z,100437.78
2019-03-30T01:13:40.670Z,100433.87
2019-03-30T01:14:11.921Z,100432.17
2019-03-30T01:14:43.140Z,100434.76
2019-03-30T01:15:14.449Z,100428.73
2019-03-30T01:15:45.659Z,100441.22
2019-03-30T01:16:16.932Z,100436.90
2019-03-30T01:16:48.134Z,100439.88
2019-03-30T01:17:19.358Z,100440.73
2019-03-30T01:17:50.566Z,100436.84
2019-03-30T01:18:21.817Z,100435.55
2019-03-30T01:18:53.060Z,100439.83
2019-03-30T01:19:24.277Z,100435.50
2019-03-30T01:20:02.734Z,100438.94
2019-03-30T01:20:28.466Z,100438.48
2019-03-30T01:20:59.684Z,100446.23
2019-03-30T01:21:30.933Z,100449.67
2019-03-30T01:22:02.143Z,100450.16
2019-03-30T01:22:33.358Z,100451.02
2019-03-30T01:23:04.591Z,100450.62
2019-03-30T01:23:35.804Z,100451.91
2019-03-30T01:24:07.044Z,100450.22
2019-03-30T01:24:38.318Z,100448.48
2019-03-30T01:25:09.663Z,100446.74
2019-03-30T01:25:40.910Z,100439.38
2019-03-30T01:26:12.121Z,100436.34
2019-03-30T01:26:43.336Z,100435.05
2019-03-30T01:27:14.593Z,100429.84
2019-03-30T01:27:45.808Z,100431.13
2019-03-30T01:28:17.019Z,100432.81
2019-03-30T01:28:48.228Z,100429.29
2019-03-30T01:29:19.452Z,100425.75
2019-03-30T01:29:50.670Z,100429.55
2019-03-30T01:30:23.393Z,100434.28
2019-03-30T01:30:54.883Z,100432.09
2019-03-30T01:31:26.154Z,100435.97
2019-03-30T01:31:57.380Z,100433.81
2019-03-30T01:32:28.631Z,100439.84
2019-03-30T01:32:59.879Z,100433.38
2019-03-30T01:33:31.109Z,100436.02
2019-03-30T01:34:02.330Z,100434.28
2019-03-30T01:34:33.531Z,100435.55
2019-03-30T01:35:04.802Z,100430.74
2019-03-30T01:35:36.035Z,100432.91
2019-03-30T01:36:07.276Z,100432.41
2019-03-30T01:36:38.495Z,100428.53
2019-03-30T01:37:09.742Z,100434.54
2019-03-30T01:37:40.959Z,100432.36
2019-03-30T01:38:12.167Z,100435.83
2019-03-30T01:38:43.373Z,100430.27
2019-03-30T01:39:14.663Z,100434.16
2019-03-30T01:39:45.935Z,100432.02
2019-03-30T01:40:17.142Z,100432.48
2019-03-30T01:40:48.425Z,100426.47
2019-03-30T01:41:19.664Z,100422.64
2019-03-30T01:41:50.871Z,100418.77
2019-03-30T01:42:22.163Z,100423.05
2019-03-30T01:42:53.378Z,100416.59
2019-03-30T01:43:24.587Z,100415.75
2019-03-30T01:43:55.821Z,100414.02
2019-03-30T01:44:27.424Z,100415.35
2019-03-30T01:44:58.635Z,100418.00
2019-03-30T01:45:29.844Z,100421.58
2019-03-30T01:46:01.060Z,100425.96
2019-03-30T01:46:32.292Z,100428.59
2019-03-30T01:47:03.538Z,100429.44
2019-03-30T01:47:34.754Z,100426.41
2019-03-30T01:48:05.981Z,100438.53
2019-03-30T01:48:37.229Z,100433.36
2019-03-30T01:49:08.563Z,100439.83
2019-03-30T01:49:39.797Z,100438.05
2019-03-30T01:50:17.689Z,100438.93
2019-03-30T01:50:43.928Z,100433.72
2019-03-30T01:51:15.148Z,100434.16
2019-03-30T01:51:46.352Z,100439.78
2019-03-30T01:52:17.571Z,100440.19
2019-03-30T01:52:48.807Z,100440.63
2019-03-30T01:53:20.115Z,100437.09
2019-03-30T01:53:51.385Z,100439.67
2019-03-30T01:54:22.620Z,100443.99
2019-03-30T01:54:53.825Z,100444.84
2019-03-30T01:55:25.043Z,100451.31
2019-03-30T01:55:56.236Z,100448.77
2019-03-30T01:56:27.491Z,100447.43
2019-03-30T01:56:58.722Z,100445.69
2019-03-30T01:57:29.937Z,100442.21
2019-03-30T01:58:01.187Z,100443.09
2019-03-30T01:58:32.363Z,100444.78
2019-03-30T01:59:03.572Z,100441.35
2019-03-30T01:59:34.783Z,100443.05
2019-03-30T02:00:05.994Z,100442.59
2019-03-30T02:00:37.245Z,100438.28
2019-03-30T02:01:08.494Z,100439.17
2019-03-30T02:01:39.758Z,100439.17
2019-03-30T02:02:11.003Z,100442.64
2019-03-30T02:02:42.206Z,100440.50
2019-03-30T02:03:13.452Z,100446.13
2019-03-30T02:03:44.636Z,100442.27
2019-03-30T02:04:15.840Z,100441.42
2019-03-30T02:04:47.042Z,100440.17
2019-03-30T02:05:18.266Z,100444.94
2019-03-30T02:05:49.531Z,100443.20
2019-03-30T02:06:20.740Z,100443.16
2019-03-30T02:06:51.939Z,100444.50
2019-03-30T02:07:23.142Z,100448.38
2019-03-30T02:07:54.351Z,100445.84
2019-03-30T02:08:25.561Z,100442.81
2019-03-30T02:08:56.772Z,100449.27
2019-03-30T02:09:28.010Z,100440.63
2019-03-30T02:09:59.309Z,100438.04
2019-03-30T02:10:30.516Z,100444.95
2019-03-30T02:11:01.802Z,100435.45
2019-03-30T02:11:33.019Z,100440.63
2019-03-30T02:12:04.265Z,100442.75
2019-03-30T02:12:35.489Z,100435.41
2019-03-30T02:13:06.688Z,100434.55
2019-03-30T02:13:37.939Z,100433.67
2019-03-30T02:14:09.173Z,100428.50
2019-03-30T02:14:42.258Z,100425.86
2019-03-30T02:15:13.512Z,100425.02
2019-03-30T02:15:44.729Z,100424.11
2019-03-30T02:16:15.943Z,100426.70
2019-03-30T02:16:47.157Z,100430.57
2019-03-30T02:17:20.158Z,100435.30
2019-03-30T02:17:51.314Z,100440.91
2019-03-30T02:18:22.567Z,100442.20
2019-03-30T02:18:53.790Z,100443.95
2019-03-30T02:19:24.972Z,100444.00
2019-03-30T02:19:56.202Z,100444.15
2019-03-30T02:20:30.925Z,100437.75
2019-03-30T02:21:00.421Z,100431.32
2019-03-30T02:21:31.631Z,100427.04
2019-03-30T02:22:02.884Z,100424.86
2019-03-30T02:22:34.088Z,100421.38
2019-03-30T02:23:05.290Z,100421.79
2019-03-30T02:23:36.510Z,100420.94
2019-03-30T02:24:07.735Z,100432.12
2019-03-30T02:24:38.998Z,100427.84
2019-03-30T02:25:10.271Z,100432.12
2019-03-30T02:25:41.479Z,100440.72
2019-03-30T02:26:12.762Z,100438.98
2019-03-30T02:26:44.002Z,100444.55
2019-03-30T02:27:15.224Z,100441.52
2019-03-30T02:27:46.476Z,100432.03
2019-03-30T02:28:17.723Z,100431.13
2019-03-30T02:28:48.933Z,100423.33
2019-03-30T02:29:20.163Z,100418.55
2019-03-30T02:29:51.380Z,100415.45
2019-03-30T02:30:22.596Z,100408.49
2019-03-30T02:30:53.825Z,100402.38
2019-03-30T02:31:25.058Z,100407.92
2019-03-30T02:31:56.251Z,100409.61
2019-03-30T02:32:27.498Z,100410.80
2019-03-30T02:32:58.700Z,100415.03
2019-03-30T02:33:29.902Z,100413.69
2019-03-30T02:34:01.114Z,100421.88
2019-03-30T02:34:32.349Z,100424.09
2019-03-30T02:35:03.592Z,100429.76
2019-03-30T02:35:34.806Z,100424.61
2019-03-30T02:36:06.064Z,100422.02
2019-03-30T02:36:37.327Z,100422.91
2019-03-30T02:37:08.520Z,100421.19
2019-03-30T02:37:39.735Z,100425.03
2019-03-30T02:38:10.943Z,100417.24
2019-03-30T02:38:42.161Z,100415.48
2019-03-30T02:39:13.371Z,100415.86
2019-03-30T02:39:44.585Z,100403.73
2019-03-30T02:40:15.875Z,100405.34
2019-03-30T02:40:47.091Z,100403.53
2019-03-30T02:41:18.351Z,100406.05
2019-03-30T02:41:49.534Z,100406.42
2019-03-30T02:42:20.757Z,100412.03
2019-03-30T02:42:51.972Z,100410.77
2019-03-30T02:43:23.310Z,100414.26
2019-03-30T02:43:54.509Z,100412.63
2019-03-30T02:44:25.719Z,100417.88
2019-03-30T02:44:56.946Z,100410.66
2019-03-30T02:45:28.207Z,100412.00
2019-03-30T02:45:59.410Z,100408.59
2019-03-30T02:46:30.629Z,100412.07
2019-03-30T02:47:01.875Z,100403.50
2019-03-30T02:47:33.136Z,100405.70
2019-03-30T02:48:04.378Z,100402.26
2019-03-30T02:48:35.622Z,100408.20
2019-03-30T02:49:06.839Z,100413.31
2019-03-30T02:49:38.046Z,100406.84
2019-03-30T02:50:09.305Z,100407.62
2019-03-30T02:50:50.139Z,100409.28
2019-03-30T02:51:13.502Z,100407.10
2019-03-30T02:51:44.709Z,100411.47
2019-03-30T02:52:15.944Z,100404.58
2019-03-30T02:52:47.193Z,100405.88
2019-03-30T02:53:18.451Z,100405.41
2019-03-30T02:53:49.665Z,100397.22
2019-03-30T02:54:20.866Z,100400.66
2019-03-30T02:54:52.078Z,100401.49
2019-03-30T02:55:23.289Z,100393.73
2019-03-30T02:55:54.503Z,100395.84
2019-03-30T02:56:25.717Z,100394.13
2019-03-30T02:56:56.929Z,100394.51
2019-03-30T02:57:28.198Z,100391.46
2019-03-30T02:57:59.493Z,100389.73
2019-03-30T02:58:30.665Z,100391.47
2019-03-30T02:59:01.874Z,100387.61
2019-03-30T02:59:33.101Z,100389.80
2019-03-30T03:00:04.312Z,100397.55
2019-03-30T03:00:35.535Z,100398.45
2019-03-30T03:01:06.775Z,100401.49
2019-03-30T03:01:38.005Z,100401.92
2019-03-30T03:02:09.201Z,100404.45
2019-03-30T03:02:40.462Z,100405.74
2019-03-30T03:03:11.680Z,100407.02
2019-03-30T03:03:42.884Z,100408.78
2019-03-30T03:04:14.093Z,100404.13
2019-03-30T03:04:45.313Z,100406.72
2019-03-30T03:05:16.532Z,100401.56
2019-03-30T03:05:47.781Z,100404.59
2019-03-30T03:06:18.993Z,100398.20
2019-03-30T03:06:50.252Z,100408.12
2019-03-30T03:07:21.469Z,100408.14
2019-03-30T03:07:52.722Z,100407.30
2019-03-30T03:08:23.946Z,100406.52
2019-03-30T03:08:55.138Z,100408.32
2019-03-30T03:09:26.350Z,100406.65
2019-03-30T03:09:57.554Z,100408.84
2019-03-30T03:10:28.774Z,100409.30
2019-03-30T03:10:59.975Z,100415.34
2019-03-30T03:11:31.202Z,100413.22
2019-03-30T03:12:02.404Z,100410.28
2019-03-30T03:12:33.606Z,100403.39
2019-03-30T03:13:04.815Z,100406.03
2019-03-30T03:13:36.033Z,100402.61
2019-03-30T03:14:07.238Z,100401.75
2019-03-30T03:14:38.481Z,100396.59
2019-03-30T03:15:09.688Z,100392.66
2019-03-30T03:15:40.898Z,100399.02
2019-03-30T03:16:12.099Z,100394.69
2019-03-30T03:16:43.301Z,100399.84
2019-03-30T03:17:14.515Z,100402.39
2019-03-30T03:17:45.729Z,100409.73
2019-03-30T03:18:16.943Z,100407.54
2019-03-30T03:18:48.161Z,100408.83
2019-03-30T03:19:19.360Z,100411.86
2019-03-30T03:19:50.623Z,100411.02
2019-03-30T03:20:21.820Z,100407.54
2019-03-30T03:21:06.740Z,100406.70
2019-03-30T03:21:25.997Z,100402.83
2019-03-30T03:21:57.218Z,100403.27
2019-03-30T03:22:28.405Z,100399.39
2019-03-30T03:22:59.645Z,100400.64
2019-03-30T03:23:30.840Z,100395.02
2019-03-30T03:24:02.049Z,100390.69
2019-03-30T03:24:33.260Z,100389.41
2019-03-30T03:25:04.516Z,100390.25
2019-03-30T03:25:35.724Z,100385.08
2019-03-30T03:26:06.938Z,100388.91
2019-03-30T03:26:38.147Z,100385.42
2019-03-30T03:27:09.365Z,100386.26
2019-03-30T03:27:40.623Z,100387.98
2019-03-30T03:28:11.847Z,100388.39
2019-03-30T03:28:43.068Z,100395.30
2019-03-30T03:29:14.292Z,100398.33
2019-03-30T03:29:45.504Z,100406.97
2019-03-30T03:30:16.778Z,100404.83
2019-03-30T03:30:48.011Z,100412.97
2019-03-30T03:31:19.283Z,100414.27
2019-03-30T03:31:50.520Z,100407.50
2019-03-30T03:32:21.725Z,100410.23
2019-03-30T03:32:52.977Z,100412.44
2019-03-30T03:33:24.205Z,100408.61
2019-03-30T03:33:55.425Z,100404.78
2019-03-30T03:34:26.737Z,100399.17
2019-03-30T03:34:57.942Z,100391.42
2019-03-30T03:35:29.139Z,100393.16
2019-03-30T03:36:00.398Z,100397.48
2019-03-30T03:36:31.610Z,100396.19
2019-03-30T03:37:02.811Z,100405.64
2019-03-30T03:37:44.926Z,100401.36
2019-03-30T03:38:06.955Z,100412.14
2019-03-30T03:38:38.170Z,100410.41
2019-03-30T03:39:09.377Z,100409.56
2019-03-30T03:39:40.605Z,100407.42
2019-03-30T03:40:11.804Z,100416.08
2019-03-30T03:40:43.017Z,100422.53
2019-03-30T03:41:14.279Z,100417.85
2019-03-30T03:41:45.532Z,100414.88
2019-03-30T03:42:16.726Z,100414.47
2019-03-30T03:42:47.953Z,100413.17
2019-03-30T03:43:19.163Z,100411.44
2019-03-30T03:43:50.382Z,100411.00
2019-03-30T03:44:21.603Z,100407.56
2019-03-30T03:44:52.822Z,100412.73
2019-03-30T03:45:24.045Z,100404.58
2019-03-30T03:45:55.274Z,100404.98
2019-03-30T03:46:26.501Z,100405.42
2019-03-30T03:46:57.735Z,100405.42
2019-03-30T03:47:28.959Z,100404.98
2019-03-30T03:48:00.180Z,100406.23
2019-03-30T03:48:31.402Z,100408.37
2019-03-30T03:49:04.408Z,100407.52
2019-03-30T03:49:35.620Z,100410.55
2019-03-30T03:50:07.240Z,100413.14
2019-03-30T03:50:38.463Z,100415.28
2019-03-30T03:51:25.073Z,100421.74
2019-03-30T03:51:42.605Z,100415.72
2019-03-30T03:52:13.833Z,100414.83
2019-03-30T03:52:45.077Z,100411.40
2019-03-30T03:53:16.289Z,100410.95
2019-03-30T03:53:47.498Z,100414.42
2019-03-30T03:54:18.709Z,100413.13
2019-03-30T03:54:49.923Z,100407.08
2019-03-30T03:55:21.134Z,100406.58
2019-03-30T03:55:52.369Z,100406.92
2019-03-30T03:56:23.623Z,100412.48
2019-03-30T03:56:54.882Z,100405.02
2019-03-30T03:57:26.093Z,100407.59
2019-03-30T03:57:57.307Z,100412.77
2019-03-30T03:58:28.544Z,100410.13
2019-03-30T03:58:59.754Z,100413.16
2019-03-30T03:59:30.962Z,100413.56
2019-03-30T04:00:02.181Z,100412.71
2019-03-30T04:00:33.383Z,100411.48
2019-03-30T04:01:04.578Z,100414.06
2019-03-30T04:01:35.788Z,100409.78
2019-03-30T04:02:06.994Z,100410.23
2019-03-30T04:02:38.248Z,100410.19
2019-03-30T04:03:09.488Z,100410.17
2019-03-30T04:03:40.768Z,100407.54
2019-03-30T04:04:11.963Z,100402.77
2019-03-30T04:04:47.048Z,100408.33
2019-03-30T04:05:16.134Z,100413.89
2019-03-30T04:05:47.363Z,100413.48
2019-03-30T04:06:18.550Z,100411.74
2019-03-30T04:06:49.775Z,100421.62
2019-03-30T04:07:20.998Z,100421.62
2019-03-30T04:07:52.239Z,100416.06
2019-03-30T04:08:23.426Z,100414.78
2019-03-30T04:08:54.693Z,100413.50
2019-03-30T04:09:25.964Z,100418.28
2019-03-30T04:09:57.177Z,100406.27
2019-03-30T04:10:28.435Z,100413.61
2019-03-30T04:10:59.631Z,100412.31
2019-03-30T04:11:30.851Z,100409.29
2019-03-30T04:12:02.069Z,100414.05
2019-03-30T04:12:33.295Z,100415.30
2019-03-30T04:13:06.936Z,100415.73
2019-03-30T04:13:37.443Z,100412.70
2019-03-30T04:14:08.701Z,100416.52
2019-03-30T04:14:39.909Z,100419.48
2019-03-30T04:15:11.127Z,100420.32
2019-03-30T04:15:42.351Z,100418.98
2019-03-30T04:16:13.561Z,100423.70
2019-03-30T04:16:44.778Z,100424.59
2019-03-30T04:17:16.038Z,100425.95
2019-03-30T04:17:47.309Z,100424.73
2019-03-30T04:18:18.520Z,100427.81
2019-03-30T04:18:49.749Z,100431.81
2019-03-30T04:19:20.940Z,100426.30
2019-03-30T04:19:52.161Z,100430.63
2019-03-30T04:20:23.407Z,100428.54
2019-03-30T04:20:54.607Z,100431.58
2019-03-30T04:21:42.442Z,100427.30
2019-03-30T04:21:58.816Z,100432.03
2019-03-30T04:22:30.071Z,100426.86
2019-03-30T04:23:01.343Z,100432.52
2019-03-30T04:23:32.553Z,100429.98
2019-03-30T04:24:03.753Z,100433.41
2019-03-30T04:24:35.003Z,100435.11
2019-03-30T04:25:06.206Z,100432.08
2019-03-30T04:25:37.438Z,100434.27
2019-03-30T04:26:08.684Z,100432.08
2019-03-30T04:26:39.894Z,100431.23
2019-03-30T04:27:11.098Z,100426.41
2019-03-30T04:27:42.302Z,100423.33
2019-03-30T04:28:13.558Z,100424.11
2019-03-30T04:28:44.778Z,100425.75
2019-03-30T04:29:15.998Z,100428.27
2019-03-30T04:29:47.215Z,100426.52
2019-03-30T04:30:18.416Z,100422.64
2019-03-30T04:30:49.620Z,100432.92
2019-03-30T04:31:20.835Z,100425.16
2019-03-30T04:31:52.074Z,100435.45
2019-03-30T04:32:23.334Z,100428.09
2019-03-30T04:32:54.586Z,100435.45
2019-03-30T04:33:25.911Z,100438.03
2019-03-30T04:33:57.132Z,100426.87
2019-03-30T04:34:28.331Z,100431.62
2019-03-30T04:34:59.543Z,100436.41
2019-03-30T04:35:30.740Z,100429.55
2019-03-30T04:36:01.948Z,100431.25
2019-03-30T04:36:33.170Z,100438.60
2019-03-30T04:37:04.392Z,100430.00
2019-03-30T04:37:35.599Z,100433.83
2019-03-30T04:38:06.807Z,100430.41
2019-03-30T04:38:38.094Z,100429.12
2019-03-30T04:39:09.296Z,100434.32
2019-03-30T04:39:40.544Z,100439.05
2019-03-30T04:40:11.738Z,100439.06
2019-03-30T04:40:42.932Z,100435.62
2019-03-30T04:41:14.141Z,100434.34
2019-03-30T04:41:45.374Z,100440.00
2019-03-30T04:42:16.590Z,100439.56
2019-03-30T04:42:47.810Z,100443.88
2019-03-30T04:43:19.045Z,100442.14
2019-03-30T04:43:50.283Z,100434.84
2019-03-30T04:44:21.486Z,100433.99
2019-03-30T04:44:52.706Z,100430.56
2019-03-30T04:45:24.002Z,100425.80
2019-03-30T04:45:55.202Z,100421.13
2019-03-30T04:46:26.417Z,100421.98
2019-03-30T04:46:57.630Z,100427.60
2019-03-30T04:47:28.861Z,100424.16
2019-03-30T04:48:00.094Z,100425.02
2019-03-30T04:48:31.419Z,100429.34
2019-03-30T04:49:02.673Z,100429.44
2019-03-30T04:49:33.881Z,100428.64
2019-03-30T04:50:05.093Z,100246.17
2019-03-30T04:50:36.328Z,100425.27
2019-03-30T04:51:07.532Z,100419.69
2019-03-30T04:51:38.733Z,100425.71
2019-03-30T04:52:09.952Z,100419.70
2019-03-30T04:52:41.165Z,100427.09
2019-03-30T04:53:12.380Z,100425.35
2019-03-30T04:53:43.618Z,100420.17
2019-03-30T04:54:14.937Z,100418.44
2019-03-30T04:54:46.142Z,100417.59
2019-03-30T04:55:17.351Z,100421.91
2019-03-30T04:55:48.580Z,100410.64
2019-03-30T04:56:19.798Z,100413.19
2019-03-30T04:56:51.006Z,100415.31
2019-03-30T04:57:22.213Z,100416.12
2019-03-30T04:57:53.427Z,100413.08
2019-03-30T04:58:24.664Z,100409.61
2019-03-30T04:58:55.921Z,100405.69
2019-03-30T04:59:27.139Z,100412.14
2019-03-30T04:59:58.364Z,100409.11
2019-03-30T05:00:29.664Z,100413.42
2019-03-30T05:01:00.883Z,100408.66
2019-03-30T05:01:32.087Z,100415.11
2019-03-30T05:02:03.308Z,100414.62
2019-03-30T05:02:34.512Z,100418.91
2019-03-30T05:03:05.728Z,100418.05
2019-03-30T05:03:36.936Z,100417.70
2019-03-30T05:04:08.229Z,100422.53
2019-03-30T05:04:39.434Z,100420.93
2019-03-30T05:05:10.646Z,100423.52
2019-03-30T05:05:43.220Z,100420.55
2019-03-30T05:06:14.644Z,100420.98
2019-03-30T05:06:45.866Z,100417.15
2019-03-30T05:07:17.086Z,100421.07
2019-03-30T05:07:48.310Z,100418.56
2019-03-30T05:08:19.501Z,100423.77
2019-03-30T05:08:50.761Z,100429.42
2019-03-30T05:09:21.986Z,100427.31
2019-03-30T05:09:53.195Z,100426.53
2019-03-30T05:10:24.396Z,100430.00
2019-03-30T05:10:55.672Z,100427.48
2019-03-30T05:11:26.874Z,100429.20
2019-03-30T05:11:58.124Z,100433.53
2019-03-30T05:12:29.358Z,100430.55
2019-03-30T05:13:00.657Z,100424.08
2019-03-30T05:13:31.910Z,100427.11
2019-03-30T05:14:03.123Z,100427.11
2019-03-30T05:14:34.336Z,100429.67
2019-03-30T05:15:05.560Z,100425.78
2019-03-30T05:15:36.771Z,100421.91
2019-03-30T05:16:07.992Z,100421.02
2019-03-30T05:16:39.214Z,100424.91
2019-03-30T05:17:10.499Z,100424.88
2019-03-30T05:17:47.357Z,100424.45
2019-03-30T05:18:14.654Z,100423.53
2019-03-30T05:18:45.877Z,100423.53
2019-03-30T05:19:17.090Z,100424.36
2019-03-30T05:19:48.291Z,100426.47
2019-03-30T05:20:19.534Z,100419.11
2019-03-30T05:20:50.741Z,100426.02
2019-03-30T05:21:22.025Z,100421.70
2019-03-30T05:21:53.253Z,100426.87
2019-03-30T05:22:24.450Z,100426.47
2019-03-30T05:22:55.686Z,100427.73
2019-03-30T05:23:26.899Z,100429.02
2019-03-30T05:23:58.103Z,100423.44
2019-03-30T05:24:29.311Z,100424.73
2019-03-30T05:25:00.588Z,100425.11
2019-03-30T05:25:31.803Z,100422.52
2019-03-30T05:26:03.022Z,100420.34
2019-03-30T05:26:34.219Z,100425.06
2019-03-30T05:27:05.484Z,100424.22
2019-03-30T05:27:36.725Z,100422.92
2019-03-30T05:28:07.965Z,100424.63
2019-03-30T05:28:39.216Z,100429.39
2019-03-30T05:29:10.431Z,100420.74
2019-03-30T05:29:41.656Z,100421.59
2019-03-30T05:30:12.881Z,100424.63
2019-03-30T05:30:44.113Z,100420.78
2019-03-30T05:31:15.368Z,100424.70
2019-03-30T05:31:46.566Z,100419.55
2019-03-30T05:32:17.778Z,100419.62
2019-03-30T05:33:04.973Z,100418.80
2019-03-30T05:33:24.702Z,100422.27
2019-03-30T05:33:55.917Z,100417.53
2019-03-30T05:34:27.208Z,100418.83
2019-03-30T05:34:58.421Z,100416.67
2019-03-30T05:35:29.642Z,100414.97
2019-03-30T05:36:00.857Z,100415.02
2019-03-30T05:36:32.090Z,100417.63
2019-03-30T05:37:03.297Z,100414.19
2019-03-30T05:37:34.499Z,100413.33
2019-03-30T05:38:05.744Z,100412.47
2019-03-30T05:38:36.956Z,100412.47
2019-03-30T05:39:08.167Z,100412.89
2019-03-30T05:39:39.421Z,100419.36
2019-03-30T05:40:10.708Z,100412.45
2019-03-30T05:40:41.894Z,100414.66
2019-03-30T05:41:13.114Z,100411.62
2019-03-30T05:41:44.328Z,100405.61
2019-03-30T05:42:15.518Z,100406.45
2019-03-30T05:42:46.736Z,100406.89
2019-03-30T05:43:17.961Z,100405.12
2019-03-30T05:43:49.173Z,100408.59
2019-03-30T05:44:20.482Z,100401.70
2019-03-30T05:44:51.685Z,100401.29
2019-03-30T05:45:22.928Z,100404.30
2019-03-30T05:45:54.132Z,100400.87
2019-03-30T05:46:25.355Z,100401.73
2019-03-30T05:46:56.617Z,100403.00
2019-03-30T05:47:27.823Z,100402.56
2019-03-30T05:47:59.037Z,100401.70
2019-03-30T05:48:30.284Z,100402.55
2019-03-30T05:49:01.518Z,100403.44
2019-03-30T05:49:32.725Z,100411.66
2019-03-30T05:50:03.943Z,100403.48
2019-03-30T05:50:35.198Z,100403.89
2019-03-30T05:51:06.434Z,100405.23
2019-03-30T05:51:37.653Z,100403.49
2019-03-30T05:52:08.871Z,100400.91
2019-03-30T05:52:40.077Z,100402.63
2019-03-30T05:53:11.285Z,100394.41
2019-03-30T05:53:42.496Z,100403.92
2019-03-30T05:54:13.711Z,100396.59
2019-03-30T05:54:44.921Z,100404.34
2019-03-30T05:55:16.208Z,100399.19
2019-03-30T05:55:47.458Z,100403.08
2019-03-30T05:56:18.682Z,100403.51
2019-03-30T05:56:49.896Z,100403.94